createdAt,value
2018-09-16T00:00:07.230Z,4.00
2018-09-16T00:02:34.949Z,4.97
2018-09-16T00:05:02.736Z,5.30
2018-09-16T00:07:30.532Z,4.60
2018-09-16T00:09:58.296Z,5.03
2018-09-16T00:12:26.029Z,6.20
2018-09-16T00:14:53.789Z,4.60
2018-09-16T00:17:21.537Z,4.30
2018-09-16T00:19:49.307Z,4.90
2018-09-16T00:22:17.089Z,4.33
2018-09-16T00:24:44.851Z,4.63
2018-09-16T00:27:12.608Z,5.93
2018-09-16T00:32:28.976Z,5.53
2018-09-16T00:34:56.690Z,3.90
2018-09-16T00:37:24.408Z,4.80
2018-09-16T00:39:52.145Z,5.30
2018-09-16T00:42:19.911Z,4.93
2018-09-16T00:44:47.641Z,4.50
2018-09-16T00:47:15.399Z,5.37
2018-09-16T00:49:43.128Z,4.77
2018-09-16T00:52:10.861Z,4.40
2018-09-16T00:54:38.590Z,4.80
2018-09-16T00:57:06.381Z,4.57
2018-09-16T00:59:34.165Z,5.20
2018-09-16T01:02:01.892Z,4.57
2018-09-16T01:04:29.611Z,4.80
2018-09-16T01:06:57.316Z,5.73
2018-09-16T01:09:25.051Z,4.87
2018-09-16T01:11:52.776Z,5.20
2018-09-16T01:14:20.590Z,5.40
2018-09-16T01:16:48.316Z,4.93
2018-09-16T01:19:16.093Z,5.07
2018-09-16T01:21:43.893Z,5.10
2018-09-16T01:24:11.622Z,4.70
2018-09-16T01:26:39.375Z,5.00
2018-09-16T01:29:07.071Z,5.47
2018-09-16T01:31:34.908Z,5.30
2018-09-16T01:34:02.644Z,5.13
2018-09-16T01:36:30.396Z,4.90
2018-09-16T01:38:58.119Z,4.67
2018-09-16T01:41:25.869Z,5.80
2018-09-16T01:43:53.567Z,5.30
2018-09-16T01:46:21.279Z,5.50
2018-09-16T01:48:49.016Z,5.53
2018-09-16T01:51:16.748Z,5.10
2018-09-16T01:53:44.458Z,5.10
2018-09-16T01:56:12.198Z,5.43
2018-09-16T01:58:40.914Z,5.37
2018-09-16T02:01:09.924Z,5.53
2018-09-16T02:03:37.725Z,4.90
2018-09-16T02:06:05.496Z,5.50
2018-09-16T02:08:33.263Z,5.80
2018-09-16T02:11:01.056Z,6.30
2018-09-16T02:13:28.764Z,4.97
2018-09-16T02:15:56.644Z,5.50
2018-09-16T02:18:24.369Z,4.60
2018-09-16T02:20:52.104Z,5.60
2018-09-16T02:23:19.887Z,5.70
2018-09-16T02:25:47.676Z,5.13
2018-09-16T02:28:15.418Z,5.83
2018-09-16T02:30:43.148Z,5.20
2018-09-16T02:33:10.872Z,6.07
2018-09-16T02:35:38.674Z,5.33
2018-09-16T02:38:06.388Z,5.77
2018-09-16T02:40:34.144Z,4.60
2018-09-16T02:43:01.933Z,5.00
2018-09-16T02:45:29.677Z,5.20
2018-09-16T02:47:57.561Z,4.73
2018-09-16T02:50:25.281Z,5.63
2018-09-16T02:52:52.995Z,5.30
2018-09-16T02:55:20.748Z,5.40
2018-09-16T02:57:48.468Z,5.33
2018-09-16T03:00:16.221Z,5.70
2018-09-16T03:02:44.001Z,5.17
2018-09-16T03:05:16.264Z,5.67
2018-09-16T03:07:44.000Z,4.42
2018-09-16T03:10:11.764Z,5.30
2018-09-16T03:12:39.504Z,5.50
2018-09-16T03:15:07.232Z,5.80
2018-09-16T03:17:34.984Z,5.60
2018-09-16T03:20:02.805Z,5.57
2018-09-16T03:22:30.547Z,5.62
2018-09-16T03:24:58.282Z,5.20
2018-09-16T03:27:26.024Z,5.30
2018-09-16T03:29:53.753Z,5.53
2018-09-16T03:32:21.505Z,4.92
2018-09-16T03:34:49.218Z,4.78
2018-09-16T03:37:17.011Z,5.28
2018-09-16T03:39:44.763Z,5.60
2018-09-16T03:42:12.502Z,5.15
2018-09-16T03:44:40.266Z,5.37
2018-09-16T03:47:08.003Z,5.30
2018-09-16T03:49:35.743Z,5.00
2018-09-16T03:52:03.502Z,4.50
2018-09-16T03:54:31.252Z,5.30
2018-09-16T03:56:58.969Z,4.53
2018-09-16T03:59:26.705Z,4.90
2018-09-16T04:01:54.432Z,5.17
2018-09-16T04:04:22.196Z,4.20
2018-09-16T04:06:50.277Z,4.60
2018-09-16T04:09:18.012Z,4.87
2018-09-16T04:11:45.743Z,5.90
2018-09-16T04:14:13.487Z,5.42
2018-09-16T04:16:41.211Z,5.65
2018-09-16T04:19:08.965Z,5.72
2018-09-16T04:21:36.701Z,4.60
2018-09-16T04:24:04.437Z,4.80
2018-09-16T04:26:32.183Z,5.20
2018-09-16T04:28:59.923Z,5.15
2018-09-16T04:31:27.664Z,4.22
2018-09-16T04:33:55.406Z,4.53
2018-09-16T04:36:23.169Z,4.78
2018-09-16T04:38:50.921Z,4.72
2018-09-16T04:41:18.681Z,5.90
2018-09-16T04:43:46.432Z,5.17
2018-09-16T04:46:14.172Z,5.47
2018-09-16T04:48:41.929Z,5.60
2018-09-16T04:51:09.674Z,5.22
2018-09-16T04:53:37.404Z,4.85
2018-09-16T04:56:05.177Z,5.20
2018-09-16T04:58:32.892Z,5.22
2018-09-16T05:01:00.663Z,4.58
2018-09-16T05:03:28.372Z,5.45
2018-09-16T05:05:56.152Z,4.78
2018-09-16T05:08:23.901Z,5.12
2018-09-16T05:10:51.661Z,4.83
2018-09-16T05:13:19.426Z,5.15
2018-09-16T05:15:47.168Z,4.83
2018-09-16T05:18:14.921Z,4.65
2018-09-16T05:20:42.640Z,4.60
2018-09-16T05:23:10.388Z,4.80
2018-09-16T05:25:38.133Z,5.15
2018-09-16T05:28:05.948Z,4.80
2018-09-16T05:30:33.673Z,5.10
2018-09-16T05:33:01.419Z,4.80
2018-09-16T05:35:29.149Z,5.03
2018-09-16T05:37:56.980Z,4.75
2018-09-16T05:40:24.713Z,5.00
2018-09-16T05:42:52.477Z,4.78
2018-09-16T05:45:20.223Z,4.97
2018-09-16T05:47:47.969Z,4.90
2018-09-16T05:50:15.725Z,5.47
2018-09-16T05:52:43.463Z,5.45
2018-09-16T05:55:11.223Z,5.33
2018-09-16T05:57:38.947Z,4.75
2018-09-16T06:00:06.843Z,5.33
2018-09-16T06:02:34.620Z,5.62
2018-09-16T06:05:02.535Z,4.47
2018-09-16T06:07:30.305Z,5.60
2018-09-16T06:09:58.061Z,5.03
2018-09-16T06:12:25.810Z,4.70
2018-09-16T06:14:53.591Z,4.33
2018-09-16T06:17:21.406Z,4.60
2018-09-16T06:19:49.130Z,4.30
2018-09-16T06:22:16.876Z,4.75
2018-09-16T06:24:44.588Z,4.83
2018-09-16T06:27:12.336Z,4.77
2018-09-16T06:29:40.072Z,4.37
2018-09-16T06:32:07.822Z,9.95
2018-09-16T06:34:35.580Z,4.65
2018-09-16T06:37:03.346Z,4.73
2018-09-16T06:39:31.109Z,6.10
2018-09-16T06:41:58.863Z,5.67
2018-09-16T06:44:26.584Z,4.50
2018-09-16T06:46:54.312Z,5.10
2018-09-16T06:49:22.049Z,5.20
2018-09-16T06:51:49.842Z,4.20
2018-09-16T06:54:17.605Z,5.23
2018-09-16T06:56:45.343Z,4.30
2018-09-16T06:59:13.056Z,5.80
2018-09-16T07:01:40.797Z,4.93
2018-09-16T07:04:08.516Z,4.97
2018-09-16T07:06:37.149Z,5.60
2018-09-16T07:09:09.064Z,5.07
2018-09-16T07:11:36.881Z,4.83
2018-09-16T07:14:05.145Z,4.80
2018-09-16T07:16:32.943Z,4.70
2018-09-16T07:19:00.660Z,5.10
2018-09-16T07:21:28.398Z,4.83
2018-09-16T07:23:56.318Z,5.23
2018-09-16T07:26:24.039Z,4.87
2018-09-16T07:28:51.796Z,4.33
2018-09-16T07:31:19.697Z,4.60
2018-09-16T07:33:47.521Z,4.23
2018-09-16T07:36:15.252Z,5.27
2018-09-16T07:38:43.217Z,4.80
2018-09-16T07:41:10.999Z,5.27
2018-09-16T07:43:38.728Z,4.40
2018-09-16T07:46:06.684Z,4.23
2018-09-16T07:48:34.432Z,4.80
2018-09-16T07:51:02.179Z,4.30
2018-09-16T07:53:29.924Z,4.53
2018-09-16T07:55:57.654Z,4.63
2018-09-16T07:58:25.416Z,4.10
2018-09-16T08:00:53.146Z,4.37
2018-09-16T08:03:20.990Z,3.60
2018-09-16T08:05:49.047Z,4.20
2018-09-16T08:08:16.785Z,3.80
2018-09-16T08:10:44.546Z,3.90
2018-09-16T08:13:12.288Z,3.60
2018-09-16T08:15:40.108Z,3.67
2018-09-16T08:18:07.815Z,4.07
2018-09-16T08:20:35.579Z,3.70
2018-09-16T08:23:03.301Z,3.70
2018-09-16T08:25:31.085Z,3.40
2018-09-16T08:27:58.803Z,7.10
2018-09-16T08:30:26.557Z,3.03
2018-09-16T08:32:54.288Z,3.40
2018-09-16T08:35:22.014Z,2.80
2018-09-16T08:37:49.802Z,2.80
2018-09-16T08:40:17.593Z,2.83
2018-09-16T08:42:45.612Z,2.70
2018-09-16T08:45:13.556Z,3.63
2018-09-16T08:47:41.332Z,3.00
2018-09-16T08:50:09.104Z,2.50
2018-09-16T08:52:36.856Z,2.73
2018-09-16T08:55:05.156Z,2.80
2018-09-16T08:57:32.910Z,3.00
2018-09-16T09:00:00.630Z,4.40
2018-09-16T09:02:28.341Z,2.73
2018-09-16T09:04:56.068Z,2.87
2018-09-16T09:07:25.718Z,3.00
2018-09-16T09:09:54.378Z,2.80
2018-09-16T09:12:22.100Z,2.63
2018-09-16T09:14:49.917Z,3.33
2018-09-16T09:17:17.631Z,2.70
2018-09-16T09:19:45.439Z,3.00
2018-09-16T09:22:13.143Z,2.07
2018-09-16T09:24:40.893Z,2.20
2018-09-16T09:27:09.049Z,3.37
2018-09-16T09:29:36.833Z,2.97
2018-09-16T09:32:04.640Z,2.60
2018-09-16T09:34:32.463Z,2.27
2018-09-16T09:37:00.204Z,2.00
2018-09-16T09:39:27.953Z,1.90
2018-09-16T09:41:55.697Z,2.13
2018-09-16T09:44:23.409Z,2.70
2018-09-16T09:46:51.157Z,1.70
2018-09-16T09:49:18.932Z,2.43
2018-09-16T09:51:46.682Z,1.93
2018-09-16T09:54:14.452Z,1.90
2018-09-16T09:56:42.178Z,1.83
2018-09-16T09:59:09.962Z,2.23
2018-09-16T10:01:37.632Z,2.17
2018-09-16T10:04:05.612Z,1.87
2018-09-16T10:06:33.348Z,2.03
2018-09-16T10:09:01.220Z,2.40
2018-09-16T10:11:28.977Z,1.97
2018-09-16T10:13:56.680Z,1.63
2018-09-16T10:16:24.427Z,1.77
2018-09-16T10:18:52.127Z,1.70
2018-09-16T10:21:19.865Z,2.10
2018-09-16T10:23:47.618Z,1.80
2018-09-16T10:26:15.439Z,1.50
2018-09-16T10:28:43.165Z,1.30
2018-09-16T10:31:10.962Z,1.10
2018-09-16T10:33:38.663Z,1.67
2018-09-16T10:36:06.654Z,1.57
2018-09-16T10:38:34.767Z,1.80
2018-09-16T10:41:02.491Z,1.90
2018-09-16T10:43:30.231Z,1.40
2018-09-16T10:45:57.945Z,1.10
2018-09-16T10:48:25.752Z,2.07
2018-09-16T10:50:53.426Z,1.57
2018-09-16T10:53:21.197Z,1.27
2018-09-16T10:55:48.912Z,1.70
2018-09-16T10:58:16.672Z,2.30
2018-09-16T11:00:44.392Z,1.57
2018-09-16T11:03:12.119Z,1.33
2018-09-16T11:05:39.836Z,1.40
2018-09-16T11:08:07.597Z,1.40
2018-09-16T11:10:35.344Z,1.50
2018-09-16T11:13:03.056Z,1.37
2018-09-16T11:15:30.788Z,1.20
2018-09-16T11:17:58.549Z,1.30
2018-09-16T11:20:26.269Z,1.07
2018-09-16T11:22:54.017Z,1.30
2018-09-16T11:25:21.793Z,1.00
2018-09-16T11:27:49.513Z,1.60
2018-09-16T11:30:17.296Z,1.40
2018-09-16T11:32:45.078Z,1.40
2018-09-16T11:35:12.772Z,1.40
2018-09-16T11:37:40.556Z,1.77
2018-09-16T11:40:08.333Z,1.40
2018-09-16T11:42:36.031Z,0.90
2018-09-16T11:45:03.840Z,1.20
2018-09-16T11:47:31.564Z,1.13
2018-09-16T11:49:59.272Z,1.50
2018-09-16T11:52:27.068Z,1.20
2018-09-16T11:54:54.832Z,1.13
2018-09-16T11:57:22.656Z,1.13
2018-09-16T11:59:50.360Z,1.30
2018-09-16T12:02:18.149Z,1.23
2018-09-16T12:04:45.883Z,1.30
2018-09-16T12:07:13.677Z,1.47
2018-09-16T12:09:41.379Z,1.80
2018-09-16T12:12:09.132Z,1.50
2018-09-16T12:14:36.859Z,1.67
2018-09-16T12:17:04.603Z,1.20
2018-09-16T12:19:32.368Z,1.73
2018-09-16T12:22:00.093Z,1.60
2018-09-16T12:24:27.831Z,1.90
2018-09-16T12:26:55.551Z,1.47
2018-09-16T12:29:23.259Z,1.40
2018-09-16T12:31:51.003Z,1.27
2018-09-16T12:34:18.724Z,1.60
2018-09-16T12:36:46.476Z,1.33
2018-09-16T12:39:14.602Z,1.67
2018-09-16T12:41:42.860Z,1.37
2018-09-16T12:44:10.632Z,1.10
2018-09-16T12:46:38.809Z,1.33
2018-09-16T12:49:06.645Z,1.13
2018-09-16T12:51:34.500Z,1.40
2018-09-16T12:54:02.242Z,1.73
2018-09-16T12:56:29.982Z,1.10
2018-09-16T12:58:57.748Z,1.50
2018-09-16T13:01:25.483Z,1.43
2018-09-16T13:03:53.214Z,1.13
2018-09-16T13:06:20.941Z,1.20
2018-09-16T13:08:48.629Z,2.20
2018-09-16T13:11:16.371Z,1.53
2018-09-16T13:13:44.119Z,1.30
2018-09-16T13:16:11.875Z,1.40
2018-09-16T13:18:39.677Z,1.90
2018-09-16T13:21:07.412Z,1.50
2018-09-16T13:23:35.136Z,1.73
2018-09-16T13:26:02.919Z,1.63
2018-09-16T13:28:30.665Z,1.63
2018-09-16T13:30:58.406Z,1.20
2018-09-16T13:33:26.112Z,1.43
2018-09-16T13:35:53.854Z,1.53
2018-09-16T13:38:21.624Z,1.30
2018-09-16T13:40:49.308Z,1.83
2018-09-16T13:43:17.035Z,1.60
2018-09-16T13:45:44.761Z,1.10
2018-09-16T13:48:12.481Z,1.50
2018-09-16T13:50:40.199Z,2.13
2018-09-16T13:53:07.967Z,1.50
2018-09-16T13:55:35.793Z,1.70
2018-09-16T13:58:03.651Z,1.53
2018-09-16T14:00:31.364Z,1.90
2018-09-16T14:02:59.093Z,1.97
2018-09-16T14:05:26.832Z,1.27
2018-09-16T14:07:54.573Z,1.23
2018-09-16T14:10:22.349Z,1.53
2018-09-16T14:12:50.084Z,1.37
2018-09-16T14:15:17.866Z,0.90
2018-09-16T14:17:45.552Z,1.40
2018-09-16T14:20:13.276Z,1.50
2018-09-16T14:22:40.996Z,1.73
2018-09-16T14:25:08.761Z,2.00
2018-09-16T14:27:36.472Z,1.57
2018-09-16T14:30:04.351Z,1.60
2018-09-16T14:32:32.112Z,1.57
2018-09-16T14:34:59.856Z,1.77
2018-09-16T14:37:27.587Z,1.93
2018-09-16T14:39:55.357Z,1.83
2018-09-16T14:42:23.059Z,1.77
2018-09-16T14:44:50.789Z,1.90
2018-09-16T14:47:18.519Z,1.50
2018-09-16T14:49:46.280Z,1.27
2018-09-16T14:52:14.012Z,2.00
2018-09-16T14:54:41.736Z,1.27
2018-09-16T14:57:09.489Z,1.90
2018-09-16T14:59:37.297Z,1.63
2018-09-16T15:02:05.083Z,1.63
2018-09-16T15:04:32.832Z,1.77
2018-09-16T15:07:00.585Z,2.70
2018-09-16T15:09:28.305Z,1.70
2018-09-16T15:11:56.062Z,1.43
2018-09-16T15:14:23.788Z,1.27
2018-09-16T15:16:51.521Z,1.20
2018-09-16T15:19:19.260Z,1.70
2018-09-16T15:21:47.028Z,1.70
2018-09-16T15:24:14.752Z,1.40
2018-09-16T15:26:42.503Z,1.33
2018-09-16T15:29:10.241Z,1.23
2018-09-16T15:31:37.975Z,1.97
2018-09-16T15:34:05.708Z,1.87
2018-09-16T15:36:33.539Z,1.50
2018-09-16T15:39:01.301Z,1.70
2018-09-16T15:41:29.104Z,1.30
2018-09-16T15:43:56.828Z,1.70
2018-09-16T15:46:24.609Z,1.40
2018-09-16T15:48:52.340Z,1.23
2018-09-16T15:51:20.117Z,1.80
2018-09-16T15:53:47.900Z,1.50
2018-09-16T15:56:15.637Z,1.33
2018-09-16T15:58:43.403Z,1.50
2018-09-16T16:01:11.139Z,1.50
2018-09-16T16:03:38.949Z,1.70
2018-09-16T16:06:06.692Z,1.83
2018-09-16T16:08:34.474Z,1.90
2018-09-16T16:11:02.258Z,1.50
2018-09-16T16:13:30.117Z,1.53
2018-09-16T16:15:57.876Z,1.87
2018-09-16T16:18:25.644Z,2.03
2018-09-16T16:20:53.385Z,1.40
2018-09-16T16:23:21.126Z,2.00
2018-09-16T16:25:48.852Z,1.80
2018-09-16T16:28:16.606Z,2.27
2018-09-16T16:30:44.444Z,2.60
2018-09-16T16:33:12.174Z,1.83
2018-09-16T16:35:40.050Z,1.50
2018-09-16T16:38:07.766Z,1.60
2018-09-16T16:40:35.522Z,2.63
2018-09-16T16:43:03.232Z,2.20
2018-09-16T16:45:30.969Z,1.37
2018-09-16T16:47:58.687Z,2.30
2018-09-16T16:50:26.411Z,2.60
2018-09-16T16:52:54.216Z,2.00
2018-09-16T16:55:21.938Z,3.37
2018-09-16T16:57:49.724Z,2.93
2018-09-16T17:00:18.364Z,2.40
2018-09-16T17:02:46.110Z,2.50
2018-09-16T17:05:13.857Z,2.97
2018-09-16T17:07:41.818Z,3.00
2018-09-16T17:10:09.583Z,2.40
2018-09-16T17:12:37.348Z,2.03
2018-09-16T17:15:05.469Z,2.43
2018-09-16T17:17:33.227Z,2.90
2018-09-16T17:20:00.960Z,3.13
2018-09-16T17:22:28.680Z,2.73
2018-09-16T17:24:56.425Z,19.53
2018-09-16T17:27:24.243Z,3.70
2018-09-16T17:29:52.003Z,3.03
2018-09-16T17:32:19.761Z,2.30
2018-09-16T17:34:47.479Z,2.50
2018-09-16T17:37:15.222Z,2.73
2018-09-16T17:39:42.936Z,2.80
2018-09-16T17:42:10.684Z,3.63
2018-09-16T17:44:38.405Z,2.57
2018-09-16T17:47:06.183Z,2.60
2018-09-16T17:49:34.023Z,3.27
2018-09-16T17:52:01.732Z,2.60
2018-09-16T17:54:29.515Z,3.40
2018-09-16T17:56:57.276Z,3.80
2018-09-16T17:59:25.072Z,3.97
2018-09-16T18:01:52.814Z,3.40
2018-09-16T18:04:20.565Z,3.00
2018-09-16T18:06:48.308Z,3.20
2018-09-16T18:09:16.068Z,4.00
2018-09-16T18:11:43.803Z,3.30
2018-09-16T18:14:11.596Z,3.33
2018-09-16T18:16:39.393Z,3.83
2018-09-16T18:19:07.127Z,5.20
2018-09-16T18:21:34.836Z,3.23
2018-09-16T18:24:02.596Z,3.87
2018-09-16T18:26:30.329Z,4.10
2018-09-16T18:28:58.171Z,3.90
2018-09-16T18:31:25.921Z,4.17
2018-09-16T18:33:53.663Z,4.03
2018-09-16T18:36:21.508Z,4.27
2018-09-16T18:38:49.310Z,3.63
2018-09-16T18:41:17.101Z,3.90
2018-09-16T18:43:44.828Z,3.50
2018-09-16T18:46:12.578Z,3.53
2018-09-16T18:48:40.321Z,3.40
2018-09-16T18:51:08.083Z,4.83
2018-09-16T18:53:35.831Z,4.40
2018-09-16T18:56:03.582Z,4.63
2018-09-16T18:58:31.348Z,5.27
2018-09-16T19:00:59.105Z,5.27
2018-09-16T19:03:26.847Z,4.43
2018-09-16T19:05:54.602Z,4.83
2018-09-16T19:08:22.325Z,6.07
2018-09-16T19:10:50.088Z,4.30
2018-09-16T19:13:17.914Z,3.90
2018-09-16T19:15:45.640Z,4.30
2018-09-16T19:18:13.386Z,4.80
2018-09-16T19:20:41.123Z,3.70
2018-09-16T19:23:08.889Z,4.70
2018-09-16T19:25:36.716Z,4.10
2018-09-16T19:28:04.445Z,5.60
2018-09-16T19:30:32.166Z,5.30
2018-09-16T19:32:59.970Z,4.30
2018-09-16T19:35:27.707Z,3.90
2018-09-16T19:37:55.489Z,3.87
2018-09-16T19:40:23.231Z,3.80
2018-09-16T19:42:51.003Z,3.90
2018-09-16T19:45:18.762Z,3.83
2018-09-16T19:47:46.538Z,3.03
2018-09-16T19:50:14.307Z,3.40
2018-09-16T19:52:42.073Z,3.50
2018-09-16T19:55:09.829Z,3.70
2018-09-16T19:57:37.583Z,3.50
2018-09-16T20:00:05.396Z,4.00
2018-09-16T20:02:33.165Z,3.97
2018-09-16T20:05:00.918Z,3.80
2018-09-16T20:07:28.691Z,4.90
2018-09-16T20:09:56.447Z,5.77
2018-09-16T20:12:24.241Z,5.53
2018-09-16T20:14:51.975Z,5.60
2018-09-16T20:17:19.709Z,4.30
2018-09-16T20:19:47.479Z,4.17
2018-09-16T20:22:15.232Z,4.43
2018-09-16T20:24:42.997Z,4.90
2018-09-16T20:27:10.770Z,5.07
2018-09-16T20:29:38.533Z,4.40
2018-09-16T20:32:06.317Z,3.90
2018-09-16T20:34:34.064Z,4.47
2018-09-16T20:37:01.865Z,4.50
2018-09-16T20:39:29.607Z,4.37
2018-09-16T20:41:57.350Z,4.93
2018-09-16T20:44:25.118Z,4.93
2018-09-16T20:46:52.921Z,4.93
2018-09-16T20:49:20.684Z,5.23
2018-09-16T20:51:48.465Z,4.70
2018-09-16T20:54:16.220Z,5.30
2018-09-16T20:56:43.988Z,5.97
2018-09-16T20:59:11.737Z,4.20
2018-09-16T21:01:39.514Z,10.07
2018-09-16T21:04:07.329Z,8.20
2018-09-16T21:06:35.196Z,4.90
2018-09-16T21:09:03.901Z,5.23
2018-09-16T21:11:31.663Z,5.00
2018-09-16T21:13:59.390Z,4.90
2018-09-16T21:16:27.201Z,4.00
2018-09-16T21:18:55.232Z,4.53
2018-09-16T21:21:23.020Z,3.90
2018-09-16T21:23:50.753Z,4.40
2018-09-16T21:26:18.658Z,4.50
2018-09-16T21:28:46.351Z,3.93
2018-09-16T21:31:14.135Z,4.60
2018-09-16T21:33:41.850Z,4.50
2018-09-16T21:36:09.606Z,4.57
2018-09-16T21:38:37.348Z,4.00
2018-09-16T21:41:05.067Z,4.60
2018-09-16T21:43:32.807Z,3.90
2018-09-16T21:46:00.508Z,4.43
2018-09-16T21:48:28.261Z,5.20
2018-09-16T21:50:55.987Z,4.27
2018-09-16T21:53:23.738Z,4.67
2018-09-16T21:55:51.578Z,4.07
2018-09-16T21:58:19.316Z,3.93
2018-09-16T22:00:51.905Z,3.80
2018-09-16T22:03:20.089Z,4.63
2018-09-16T22:05:47.910Z,4.00
2018-09-16T22:08:15.901Z,3.70
2018-09-16T22:10:43.965Z,3.73
2018-09-16T22:13:11.725Z,3.70
2018-09-16T22:15:39.574Z,3.87
2018-09-16T22:18:07.300Z,4.53
2018-09-16T22:20:35.105Z,4.80
2018-09-16T22:23:02.856Z,3.77
2018-09-16T22:25:30.644Z,4.37
2018-09-16T22:27:58.364Z,3.30
2018-09-16T22:30:26.113Z,4.07
2018-09-16T22:32:53.822Z,3.90
2018-09-16T22:35:21.630Z,4.30
2018-09-16T22:37:49.378Z,3.90
2018-09-16T22:40:17.133Z,4.00
2018-09-16T22:42:44.853Z,3.73
2018-09-16T22:45:12.676Z,5.37
2018-09-16T22:47:40.411Z,4.17
2018-09-16T22:50:08.184Z,3.97
2018-09-16T22:52:35.906Z,4.60
2018-09-16T22:55:03.757Z,4.00
2018-09-16T22:57:31.492Z,4.10
2018-09-16T22:59:59.240Z,5.53
2018-09-16T23:02:27.005Z,3.60
2018-09-16T23:04:54.724Z,3.90
2018-09-16T23:07:22.502Z,4.13
2018-09-16T23:09:50.230Z,4.33
2018-09-16T23:12:17.980Z,4.17
2018-09-16T23:14:45.692Z,3.70
2018-09-16T23:17:13.430Z,4.50
2018-09-16T23:19:41.144Z,3.87
2018-09-16T23:22:08.891Z,3.80
2018-09-16T23:24:36.604Z,3.93
2018-09-16T23:27:04.440Z,4.40
2018-09-16T23:29:32.167Z,3.70
2018-09-16T23:31:59.900Z,4.53
2018-09-16T23:34:27.644Z,3.80
2018-09-16T23:36:55.420Z,4.00
2018-09-16T23:39:23.157Z,3.87
2018-09-16T23:41:51.035Z,3.97
2018-09-16T23:44:18.766Z,4.20
2018-09-16T23:46:46.540Z,3.47
2018-09-16T23:49:14.273Z,3.80
2018-09-16T23:51:42.024Z,4.07
2018-09-16T23:54:09.762Z,4.73
2018-09-16T23:56:37.515Z,4.20
2018-09-16T23:59:05.285Z,4.33
